sensor_id;sensor_type;location;lat;lon;timestamp;temperature;humidity
18454;DHT22;9356;52.202;20.950;2023-08-08T00:00:21;16.30;99.90
18454;DHT22;9356;52.202;20.950;2023-08-08T00:01:29;16.30;99.90
18454;DHT22;9356;52.202;20.950;2023-08-08T00:04:44;16.30;99.90
18454;DHT22;9356;52.202;20.950;2023-08-08T00:05:48;16.20;99.90
18454;DHT22;9356;52.202;20.950;2023-08-08T00:06:56;16.30;99.90
18454;DHT22;9356;52.202;20.950;2023-08-08T00:08:01;16.30;99.90
18454;DHT22;9356;52.202;20.950;2023-08-08T00:09:08;16.30;99.90
18454;DHT22;9356;52.202;20.950;2023-08-08T00:10:13;16.20;99.90
18454;DHT22;9356;52.202;20.950;2023-08-08T00:11:29;17.00;99.90
18454;DHT22;9356;52.202;20.950;2023-08-08T00:13:41;16.20;99.90
18454;DHT22;9356;52.202;20.950;2023-08-08T00:15:55;16.20;99.90
18454;DHT22;9356;52.202;20.950;2023-08-08T00:17:01;16.20;99.90
18454;DHT22;9356;52.202;20.950;2023-08-08T00:18:09;16.10;99.90
18454;DHT22;9356;52.202;20.950;2023-08-08T00:19:13;16.00;99.90
18454;DHT22;9356;52.202;20.950;2023-08-08T00:20:21;16.00;99.90
18454;DHT22;9356;52.202;20.950;2023-08-08T00:21:25;15.90;99.90
18454;DHT22;9356;52.202;20.950;2023-08-08T00:22:29;16.00;99.90
18454;DHT22;9356;52.202;20.950;2023-08-08T00:23:37;16.00;99.90
18454;DHT22;9356;52.202;20.950;2023-08-08T00:24:40;16.90;99.90
18454;DHT22;9356;52.202;20.950;2023-08-08T00:25:44;16.00;99.90
18454;DHT22;9356;52.202;20.950;2023-08-08T00:26:56;16.00;99.90
18454;DHT22;9356;52.202;20.950;2023-08-08T00:28:02;15.90;99.90
18454;DHT22;9356;52.202;20.950;2023-08-08T00:29:05;15.90;99.90
18454;DHT22;9356;52.202;20.950;2023-08-08T00:31:18;15.90;99.90
18454;DHT22;9356;52.202;20.950;2023-08-08T00:33:31;15.90;99.90
18454;DHT22;9356;52.202;20.950;2023-08-08T00:34:36;15.90;99.90
18454;DHT22;9356;52.202;20.950;2023-08-08T00:35:39;15.90;99.90
18454;DHT22;9356;52.202;20.950;2023-08-08T00:36:44;15.90;99.90
18454;DHT22;9356;52.202;20.950;2023-08-08T00:37:48;15.90;99.90
18454;DHT22;9356;52.202;20.950;2023-08-08T00:38:56;15.90;99.90
18454;DHT22;9356;52.202;20.950;2023-08-08T00:40:01;15.90;99.90
18454;DHT22;9356;52.202;20.950;2023-08-08T00:41:10;15.90;99.90
18454;DHT22;9356;52.202;20.950;2023-08-08T00:44:29;16.00;99.90
18454;DHT22;9356;52.202;20.950;2023-08-08T00:45:43;15.80;99.90
18454;DHT22;9356;52.202;20.950;2023-08-08T00:46:50;15.90;99.90
18454;DHT22;9356;52.202;20.950;2023-08-08T00:47:59;15.80;99.90
18454;DHT22;9356;52.202;20.950;2023-08-08T00:49:05;15.80;99.90
18454;DHT22;9356;52.202;20.950;2023-08-08T00:50:16;15.80;99.90
18454;DHT22;9356;52.202;20.950;2023-08-08T00:51:25;17.50;99.90
18454;DHT22;9356;52.202;20.950;2023-08-08T00:52:41;15.70;99.90
18454;DHT22;9356;52.202;20.950;2023-08-08T00:53:52;15.70;99.90
18454;DHT22;9356;52.202;20.950;2023-08-08T00:54:59;15.70;99.90
18454;DHT22;9356;52.202;20.950;2023-08-08T00:57:12;15.60;99.90
18454;DHT22;9356;52.202;20.950;2023-08-08T00:58:20;15.60;99.90
18454;DHT22;9356;52.202;20.950;2023-08-08T01:00:34;15.70;99.90
18454;DHT22;9356;52.202;20.950;2023-08-08T01:01:41;15.60;99.90
18454;DHT22;9356;52.202;20.950;2023-08-08T01:03:57;15.70;99.90
18454;DHT22;9356;52.202;20.950;2023-08-08T01:05:07;15.70;99.90
18454;DHT22;9356;52.202;20.950;2023-08-08T01:06:22;15.70;99.90
18454;DHT22;9356;52.202;20.950;2023-08-08T01:07:33;15.70;99.90
18454;DHT22;9356;52.202;20.950;2023-08-08T01:08:51;15.60;99.90
18454;DHT22;9356;52.202;20.950;2023-08-08T01:10:09;15.60;99.90
18454;DHT22;9356;52.202;20.950;2023-08-08T01:11:20;15.60;99.90
18454;DHT22;9356;52.202;20.950;2023-08-08T01:12:27;15.60;99.90
18454;DHT22;9356;52.202;20.950;2023-08-08T01:13:35;15.70;99.90
18454;DHT22;9356;52.202;20.950;2023-08-08T01:14:41;15.60;99.90
18454;DHT22;9356;52.202;20.950;2023-08-08T01:15:51;15.60;99.90
18454;DHT22;9356;52.202;20.950;2023-08-08T01:17:07;15.60;99.90
18454;DHT22;9356;52.202;20.950;2023-08-08T01:18:13;15.60;99.90
18454;DHT22;9356;52.202;20.950;2023-08-08T01:19:26;15.60;99.90
18454;DHT22;9356;52.202;20.950;2023-08-08T01:20:35;15.80;99.90
18454;DHT22;9356;52.202;20.950;2023-08-08T01:21:44;15.70;99.90
18454;DHT22;9356;52.202;20.950;2023-08-08T01:23:02;15.70;99.90
18454;DHT22;9356;52.202;20.950;2023-08-08T01:24:18;15.70;99.90
18454;DHT22;9356;52.202;20.950;2023-08-08T01:25:26;15.60;99.90
18454;DHT22;9356;52.202;20.950;2023-08-08T01:26:32;15.60;99.90
18454;DHT22;9356;52.202;20.950;2023-08-08T01:27:41;15.50;99.90
18454;DHT22;9356;52.202;20.950;2023-08-08T01:28:47;15.40;99.90
18454;DHT22;9356;52.202;20.950;2023-08-08T01:29:53;15.50;99.90
18454;DHT22;9356;52.202;20.950;2023-08-08T01:31:00;15.50;99.90
18454;DHT22;9356;52.202;20.950;2023-08-08T01:32:09;15.60;99.90
18454;DHT22;9356;52.202;20.950;2023-08-08T01:33:15;15.50;99.90
18454;DHT22;9356;52.202;20.950;2023-08-08T01:34:20;15.60;99.90
18454;DHT22;9356;52.202;20.950;2023-08-08T01:35:34;17.40;99.90
18454;DHT22;9356;52.202;20.950;2023-08-08T01:36:45;15.50;99.90
18454;DHT22;9356;52.202;20.950;2023-08-08T01:38:00;15.50;99.90
18454;DHT22;9356;52.202;20.950;2023-08-08T01:39:17;15.50;99.90
18454;DHT22;9356;52.202;20.950;2023-08-08T01:40:25;15.60;99.90
18454;DHT22;9356;52.202;20.950;2023-08-08T01:41:39;15.60;99.90
18454;DHT22;9356;52.202;20.950;2023-08-08T01:43:55;15.60;99.90
18454;DHT22;9356;52.202;20.950;2023-08-08T01:45:00;15.60;99.90
18454;DHT22;9356;52.202;20.950;2023-08-08T01:46:07;15.60;99.90
18454;DHT22;9356;52.202;20.950;2023-08-08T01:47:17;15.70;99.90
18454;DHT22;9356;52.202;20.950;2023-08-08T01:48:21;15.50;99.90
18454;DHT22;9356;52.202;20.950;2023-08-08T01:50:41;15.60;99.90
18454;DHT22;9356;52.202;20.950;2023-08-08T01:51:44;15.60;99.90
18454;DHT22;9356;52.202;20.950;2023-08-08T01:52:55;15.60;99.90
18454;DHT22;9356;52.202;20.950;2023-08-08T01:54:01;15.60;99.90
18454;DHT22;9356;52.202;20.950;2023-08-08T01:55:11;15.60;99.90
18454;DHT22;9356;52.202;20.950;2023-08-08T01:56:16;15.60;99.90
18454;DHT22;9356;52.202;20.950;2023-08-08T01:57:20;15.50;99.90
18454;DHT22;9356;52.202;20.950;2023-08-08T02:00:34;15.30;99.90
18454;DHT22;9356;52.202;20.950;2023-08-08T02:01:44;15.30;99.90
18454;DHT22;9356;52.202;20.950;2023-08-08T02:05:08;15.30;99.90
18454;DHT22;9356;52.202;20.950;2023-08-08T02:06:14;15.40;99.90
18454;DHT22;9356;52.202;20.950;2023-08-08T02:07:21;15.40;99.90
18454;DHT22;9356;52.202;20.950;2023-08-08T02:08:27;15.40;99.90
18454;DHT22;9356;52.202;20.950;2023-08-08T02:09:31;11.90;99.60
18454;DHT22;9356;52.202;20.950;2023-08-08T02:10:37;15.30;99.90
18454;DHT22;9356;52.202;20.950;2023-08-08T02:11:41;15.30;99.90
18454;DHT22;9356;52.202;20.950;2023-08-08T02:12:49;15.40;99.90
18454;DHT22;9356;52.202;20.950;2023-08-08T02:14:00;15.40;99.90
18454;DHT22;9356;52.202;20.950;2023-08-08T02:15:05;15.30;99.90
18454;DHT22;9356;52.202;20.950;2023-08-08T02:16:09;15.30;99.90
18454;DHT22;9356;52.202;20.950;2023-08-08T02:17:14;15.30;99.90
18454;DHT22;9356;52.202;20.950;2023-08-08T02:18:23;15.30;99.90
18454;DHT22;9356;52.202;20.950;2023-08-08T02:19:29;15.30;99.90
18454;DHT22;9356;52.202;20.950;2023-08-08T02:20:37;19.60;99.90
18454;DHT22;9356;52.202;20.950;2023-08-08T02:21:41;17.60;99.90
18454;DHT22;9356;52.202;20.950;2023-08-08T02:22:55;15.20;99.90
18454;DHT22;9356;52.202;20.950;2023-08-08T02:24:11;16.70;99.90
18454;DHT22;9356;52.202;20.950;2023-08-08T02:25:18;15.00;99.90
18454;DHT22;9356;52.202;20.950;2023-08-08T02:26:25;14.90;99.90
18454;DHT22;9356;52.202;20.950;2023-08-08T02:27:33;14.90;99.90
18454;DHT22;9356;52.202;20.950;2023-08-08T02:28:43;15.00;99.90
18454;DHT22;9356;52.202;20.950;2023-08-08T02:29:52;14.90;99.90
18454;DHT22;9356;52.202;20.950;2023-08-08T02:31:07;14.90;99.90
18454;DHT22;9356;52.202;20.950;2023-08-08T02:32:13;14.90;99.90
18454;DHT22;9356;52.202;20.950;2023-08-08T02:33:17;15.00;99.90
18454;DHT22;9356;52.202;20.950;2023-08-08T02:35:28;15.10;99.90
18454;DHT22;9356;52.202;20.950;2023-08-08T02:36:33;15.10;99.90
18454;DHT22;9356;52.202;20.950;2023-08-08T02:37:46;15.10;99.90
18454;DHT22;9356;52.202;20.950;2023-08-08T02:38:53;15.10;99.90
18454;DHT22;9356;52.202;20.950;2023-08-08T02:40:01;15.20;99.90
18454;DHT22;9356;52.202;20.950;2023-08-08T02:41:09;15.20;99.90
18454;DHT22;9356;52.202;20.950;2023-08-08T02:42:14;15.20;99.90
18454;DHT22;9356;52.202;20.950;2023-08-08T02:44:25;15.10;99.90
18454;DHT22;9356;52.202;20.950;2023-08-08T02:45:32;15.00;99.90
18454;DHT22;9356;52.202;20.950;2023-08-08T02:46:40;15.00;99.90
18454;DHT22;9356;52.202;20.950;2023-08-08T02:47:44;13.90;99.80
18454;DHT22;9356;52.202;20.950;2023-08-08T02:48:49;15.00;99.90
18454;DHT22;9356;52.202;20.950;2023-08-08T02:49:53;17.10;99.90
18454;DHT22;9356;52.202;20.950;2023-08-08T02:50:58;15.00;99.90
18454;DHT22;9356;52.202;20.950;2023-08-08T02:52:06;15.00;99.90
18454;DHT22;9356;52.202;20.950;2023-08-08T02:53:14;18.30;99.90
18454;DHT22;9356;52.202;20.950;2023-08-08T02:54:22;15.00;99.90
18454;DHT22;9356;52.202;20.950;2023-08-08T02:56:32;15.10;99.90
18454;DHT22;9356;52.202;20.950;2023-08-08T02:57:45;15.10;99.90
18454;DHT22;9356;52.202;20.950;2023-08-08T02:58:50;14.90;99.90
18454;DHT22;9356;52.202;20.950;2023-08-08T02:59:57;15.00;99.90
18454;DHT22;9356;52.202;20.950;2023-08-08T03:01:05;15.00;99.90
18454;DHT22;9356;52.202;20.950;2023-08-08T03:02:17;14.90;99.90
18454;DHT22;9356;52.202;20.950;2023-08-08T03:03:22;14.90;99.90
18454;DHT22;9356;52.202;20.950;2023-08-08T03:04:29;14.80;99.90
18454;DHT22;9356;52.202;20.950;2023-08-08T03:05:40;14.80;99.90
18454;DHT22;9356;52.202;20.950;2023-08-08T03:06:45;14.90;99.90
18454;DHT22;9356;52.202;20.950;2023-08-08T03:07:54;14.90;99.90
18454;DHT22;9356;52.202;20.950;2023-08-08T03:09:05;14.90;99.90
18454;DHT22;9356;52.202;20.950;2023-08-08T03:10:14;14.90;99.90
18454;DHT22;9356;52.202;20.950;2023-08-08T03:11:50;14.90;99.70
18454;DHT22;9356;52.202;20.950;2023-08-08T03:14:06;14.80;99.80
18454;DHT22;9356;52.202;20.950;2023-08-08T03:15:14;14.80;99.60
18454;DHT22;9356;52.202;20.950;2023-08-08T03:16:20;14.80;99.90
18454;DHT22;9356;52.202;20.950;2023-08-08T03:17:25;14.70;99.90
18454;DHT22;9356;52.202;20.950;2023-08-08T03:18:31;14.80;99.90
18454;DHT22;9356;52.202;20.950;2023-08-08T03:19:35;14.90;99.90
18454;DHT22;9356;52.202;20.950;2023-08-08T03:20:44;14.80;99.90
18454;DHT22;9356;52.202;20.950;2023-08-08T03:21:47;14.90;99.90
18454;DHT22;9356;52.202;20.950;2023-08-08T03:22:53;14.80;99.80
18454;DHT22;9356;52.202;20.950;2023-08-08T03:24:02;14.70;99.90
18454;DHT22;9356;52.202;20.950;2023-08-08T03:25:08;14.80;99.90
18454;DHT22;9356;52.202;20.950;2023-08-08T03:27:21;17.50;99.90
18454;DHT22;9356;52.202;20.950;2023-08-08T03:28:29;14.80;99.90
18454;DHT22;9356;52.202;20.950;2023-08-08T03:29:41;14.90;99.90
18454;DHT22;9356;52.202;20.950;2023-08-08T03:30:44;14.90;99.90
18454;DHT22;9356;52.202;20.950;2023-08-08T03:31:52;14.90;99.90
18454;DHT22;9356;52.202;20.950;2023-08-08T03:32:58;16.10;99.90
18454;DHT22;9356;52.202;20.950;2023-08-08T03:34:12;14.90;99.60
18454;DHT22;9356;52.202;20.950;2023-08-08T03:35:17;14.90;99.50
18454;DHT22;9356;52.202;20.950;2023-08-08T03:37:30;14.90;99.60
18454;DHT22;9356;52.202;20.950;2023-08-08T03:38:38;14.90;99.50
18454;DHT22;9356;52.202;20.950;2023-08-08T03:39:50;15.00;99.60
18454;DHT22;9356;52.202;20.950;2023-08-08T03:40:56;14.90;99.40
18454;DHT22;9356;52.202;20.950;2023-08-08T03:42:04;14.90;99.30
18454;DHT22;9356;52.202;20.950;2023-08-08T03:44:18;15.00;99.70
18454;DHT22;9356;52.202;20.950;2023-08-08T03:45:29;15.10;99.70
18454;DHT22;9356;52.202;20.950;2023-08-08T03:46:38;15.20;99.80
18454;DHT22;9356;52.202;20.950;2023-08-08T03:47:44;15.30;99.50
18454;DHT22;9356;52.202;20.950;2023-08-08T03:51:12;15.30;99.00
18454;DHT22;9356;52.202;20.950;2023-08-08T03:52:18;15.20;99.40
18454;DHT22;9356;52.202;20.950;2023-08-08T03:53:22;15.30;99.30
18454;DHT22;9356;52.202;20.950;2023-08-08T03:54:26;15.20;99.00
18454;DHT22;9356;52.202;20.950;2023-08-08T03:56:41;15.20;99.40
18454;DHT22;9356;52.202;20.950;2023-08-08T03:57:48;15.20;99.50
18454;DHT22;9356;52.202;20.950;2023-08-08T03:58:54;15.20;99.80
18454;DHT22;9356;52.202;20.950;2023-08-08T04:00:05;15.20;99.40
18454;DHT22;9356;52.202;20.950;2023-08-08T04:01:22;15.30;99.40
18454;DHT22;9356;52.202;20.950;2023-08-08T04:02:29;15.30;99.20
18454;DHT22;9356;52.202;20.950;2023-08-08T04:03:33;15.20;99.10
18454;DHT22;9356;52.202;20.950;2023-08-08T04:04:38;15.30;99.00
18454;DHT22;9356;52.202;20.950;2023-08-08T04:05:45;15.30;99.10
18454;DHT22;9356;52.202;20.950;2023-08-08T04:06:53;15.40;99.10
18454;DHT22;9356;52.202;20.950;2023-08-08T04:07:57;15.80;99.60
18454;DHT22;9356;52.202;20.950;2023-08-08T04:09:05;15.60;98.90
18454;DHT22;9356;52.202;20.950;2023-08-08T04:11:26;15.70;98.80
18454;DHT22;9356;52.202;20.950;2023-08-08T04:12:33;15.80;98.50
18454;DHT22;9356;52.202;20.950;2023-08-08T04:13:42;15.70;98.50
18454;DHT22;9356;52.202;20.950;2023-08-08T04:14:48;15.80;98.30
18454;DHT22;9356;52.202;20.950;2023-08-08T04:15:58;15.80;98.80
18454;DHT22;9356;52.202;20.950;2023-08-08T04:17:01;15.80;98.80
18454;DHT22;9356;52.202;20.950;2023-08-08T04:18:06;15.60;98.40
18454;DHT22;9356;52.202;20.950;2023-08-08T04:19:13;15.80;98.50
18454;DHT22;9356;52.202;20.950;2023-08-08T04:20:22;15.70;98.40
18454;DHT22;9356;52.202;20.950;2023-08-08T04:21:25;15.80;98.60
18454;DHT22;9356;52.202;20.950;2023-08-08T04:22:32;15.90;98.30
18454;DHT22;9356;52.202;20.950;2023-08-08T04:23:36;15.90;98.30
18454;DHT22;9356;52.202;20.950;2023-08-08T04:24:41;16.00;98.40
18454;DHT22;9356;52.202;20.950;2023-08-08T04:25:50;16.10;98.40
18454;DHT22;9356;52.202;20.950;2023-08-08T04:26:58;16.20;98.60
18454;DHT22;9356;52.202;20.950;2023-08-08T04:28:02;16.30;98.10
18454;DHT22;9356;52.202;20.950;2023-08-08T04:29:09;16.30;97.60
18454;DHT22;9356;52.202;20.950;2023-08-08T04:30:14;16.40;98.10
18454;DHT22;9356;52.202;20.950;2023-08-08T04:31:22;16.70;98.10
18454;DHT22;9356;52.202;20.950;2023-08-08T04:33:34;17.30;97.10
18454;DHT22;9356;52.202;20.950;2023-08-08T04:34:38;17.30;97.10
18454;DHT22;9356;52.202;20.950;2023-08-08T04:35:53;17.50;96.70
18454;DHT22;9356;52.202;20.950;2023-08-08T04:36:58;17.70;96.10
18454;DHT22;9356;52.202;20.950;2023-08-08T04:38:06;17.80;96.00
18454;DHT22;9356;52.202;20.950;2023-08-08T04:40:21;18.10;94.90
18454;DHT22;9356;52.202;20.950;2023-08-08T04:41:28;17.90;94.80
18454;DHT22;9356;52.202;20.950;2023-08-08T04:42:33;18.10;95.20
18454;DHT22;9356;52.202;20.950;2023-08-08T04:43:37;18.20;95.00
18454;DHT22;9356;52.202;20.950;2023-08-08T04:44:42;18.40;94.70
18454;DHT22;9356;52.202;20.950;2023-08-08T04:45:45;20.40;94.30
18454;DHT22;9356;52.202;20.950;2023-08-08T04:46:54;18.50;94.50
18454;DHT22;9356;52.202;20.950;2023-08-08T04:47:57;18.50;94.00
18454;DHT22;9356;52.202;20.950;2023-08-08T04:49:03;18.50;93.60
18454;DHT22;9356;52.202;20.950;2023-08-08T04:50:09;18.60;93.70
18454;DHT22;9356;52.202;20.950;2023-08-08T04:51:15;18.50;93.30
18454;DHT22;9356;52.202;20.950;2023-08-08T04:52:24;18.60;93.40
18454;DHT22;9356;52.202;20.950;2023-08-08T04:53:29;19.10;93.50
18454;DHT22;9356;52.202;20.950;2023-08-08T04:54:32;18.30;93.20
18454;DHT22;9356;52.202;20.950;2023-08-08T04:55:41;18.30;93.40
18454;DHT22;9356;52.202;20.950;2023-08-08T04:56:45;18.30;93.40
18454;DHT22;9356;52.202;20.950;2023-08-08T04:57:50;18.30;93.70
18454;DHT22;9356;52.202;20.950;2023-08-08T04:58:54;18.20;93.70
18454;DHT22;9356;52.202;20.950;2023-08-08T05:00:13;17.90;93.40
18454;DHT22;9356;52.202;20.950;2023-08-08T05:01:17;17.80;93.50
18454;DHT22;9356;52.202;20.950;2023-08-08T05:02:26;17.80;93.80
18454;DHT22;9356;52.202;20.950;2023-08-08T05:03:30;17.70;94.00
18454;DHT22;9356;52.202;20.950;2023-08-08T05:05:43;17.50;94.30
18454;DHT22;9356;52.202;20.950;2023-08-08T05:06:48;18.70;95.00
18454;DHT22;9356;52.202;20.950;2023-08-08T05:07:55;17.50;94.50
18454;DHT22;9356;52.202;20.950;2023-08-08T05:09:01;17.40;94.30
18454;DHT22;9356;52.202;20.950;2023-08-08T05:10:10;17.40;94.40
18454;DHT22;9356;52.202;20.950;2023-08-08T05:11:15;17.10;94.30
18454;DHT22;9356;52.202;20.950;2023-08-08T05:12:21;16.80;94.90
18454;DHT22;9356;52.202;20.950;2023-08-08T05:13:27;16.80;94.90
18454;DHT22;9356;52.202;20.950;2023-08-08T05:15:46;16.50;95.50
18454;DHT22;9356;52.202;20.950;2023-08-08T05:16:53;16.50;95.30
18454;DHT22;9356;52.202;20.950;2023-08-08T05:17:59;17.40;96.00
18454;DHT22;9356;52.202;20.950;2023-08-08T05:19:11;16.40;95.90
18454;DHT22;9356;52.202;20.950;2023-08-08T05:20:20;16.40;95.80
18454;DHT22;9356;52.202;20.950;2023-08-08T05:21:29;16.50;96.00
18454;DHT22;9356;52.202;20.950;2023-08-08T05:22:34;16.50;95.90
18454;DHT22;9356;52.202;20.950;2023-08-08T05:23:38;16.50;96.10
18454;DHT22;9356;52.202;20.950;2023-08-08T05:24:46;16.50;95.60
18454;DHT22;9356;52.202;20.950;2023-08-08T05:26:55;16.30;95.90
18454;DHT22;9356;52.202;20.950;2023-08-08T05:29:05;16.30;96.50
18454;DHT22;9356;52.202;20.950;2023-08-08T05:30:11;16.40;96.20
18454;DHT22;9356;52.202;20.950;2023-08-08T05:32:21;16.40;96.60
18454;DHT22;9356;52.202;20.950;2023-08-08T05:33:27;16.40;96.90
18454;DHT22;9356;52.202;20.950;2023-08-08T05:34:33;16.40;96.40
18454;DHT22;9356;52.202;20.950;2023-08-08T05:35:47;16.40;96.20
18454;DHT22;9356;52.202;20.950;2023-08-08T05:36:51;16.50;96.40
18454;DHT22;9356;52.202;20.950;2023-08-08T05:40:22;16.40;96.20
18454;DHT22;9356;52.202;20.950;2023-08-08T05:41:29;16.50;96.50
18454;DHT22;9356;52.202;20.950;2023-08-08T05:42:37;16.50;96.50
18454;DHT22;9356;52.202;20.950;2023-08-08T05:43:42;16.50;96.30
18454;DHT22;9356;52.202;20.950;2023-08-08T05:45:54;16.40;96.20
18454;DHT22;9356;52.202;20.950;2023-08-08T05:48:01;16.30;96.60
18454;DHT22;9356;52.202;20.950;2023-08-08T05:49:07;16.30;96.40
18454;DHT22;9356;52.202;20.950;2023-08-08T05:50:19;16.30;96.60
18454;DHT22;9356;52.202;20.950;2023-08-08T05:51:25;16.30;96.60
18454;DHT22;9356;52.202;20.950;2023-08-08T05:52:33;16.20;96.70
18454;DHT22;9356;52.202;20.950;2023-08-08T05:53:43;16.30;97.10
18454;DHT22;9356;52.202;20.950;2023-08-08T05:54:47;16.40;96.40
18454;DHT22;9356;52.202;20.950;2023-08-08T05:55:52;16.40;96.30
18454;DHT22;9356;52.202;20.950;2023-08-08T05:56:57;16.40;96.40
18454;DHT22;9356;52.202;20.950;2023-08-08T05:58:02;16.50;96.40
18454;DHT22;9356;52.202;20.950;2023-08-08T05:59:08;16.50;96.10
18454;DHT22;9356;52.202;20.950;2023-08-08T06:00:13;16.50;96.40
18454;DHT22;9356;52.202;20.950;2023-08-08T06:01:21;16.40;96.20
18454;DHT22;9356;52.202;20.950;2023-08-08T06:03:32;16.30;96.30
18454;DHT22;9356;52.202;20.950;2023-08-08T06:04:36;16.40;96.10
18454;DHT22;9356;52.202;20.950;2023-08-08T06:05:40;12.70;95.10
18454;DHT22;9356;52.202;20.950;2023-08-08T06:06:44;16.40;96.00
18454;DHT22;9356;52.202;20.950;2023-08-08T06:07:51;16.40;96.00
18454;DHT22;9356;52.202;20.950;2023-08-08T06:08:57;16.40;96.70
18454;DHT22;9356;52.202;20.950;2023-08-08T06:10:04;16.40;96.10
18454;DHT22;9356;52.202;20.950;2023-08-08T06:11:08;16.50;96.50
18454;DHT22;9356;52.202;20.950;2023-08-08T06:12:12;16.50;96.00
18454;DHT22;9356;52.202;20.950;2023-08-08T06:13:21;16.50;96.20
18454;DHT22;9356;52.202;20.950;2023-08-08T06:14:26;16.60;96.20
18454;DHT22;9356;52.202;20.950;2023-08-08T06:15:29;16.60;95.90
18454;DHT22;9356;52.202;20.950;2023-08-08T06:16:33;16.60;95.90
18454;DHT22;9356;52.202;20.950;2023-08-08T06:17:36;15.80;95.80
18454;DHT22;9356;52.202;20.950;2023-08-08T06:18:41;16.60;96.00
18454;DHT22;9356;52.202;20.950;2023-08-08T06:19:46;16.70;95.90
18454;DHT22;9356;52.202;20.950;2023-08-08T06:20:56;16.80;96.00
18454;DHT22;9356;52.202;20.950;2023-08-08T06:22:00;16.90;95.90
18454;DHT22;9356;52.202;20.950;2023-08-08T06:23:05;16.90;95.30
18454;DHT22;9356;52.202;20.950;2023-08-08T06:24:08;16.80;95.30
18454;DHT22;9356;52.202;20.950;2023-08-08T06:25:12;16.70;95.30
18454;DHT22;9356;52.202;20.950;2023-08-08T06:26:17;16.70;95.80
18454;DHT22;9356;52.202;20.950;2023-08-08T06:27:22;16.60;95.70
18454;DHT22;9356;52.202;20.950;2023-08-08T06:28:29;16.50;95.30
18454;DHT22;9356;52.202;20.950;2023-08-08T06:29:34;16.40;95.20
18454;DHT22;9356;52.202;20.950;2023-08-08T06:30:41;16.40;95.20
18454;DHT22;9356;52.202;20.950;2023-08-08T06:31:45;16.40;95.90
18454;DHT22;9356;52.202;20.950;2023-08-08T06:32:50;16.50;95.80
18454;DHT22;9356;52.202;20.950;2023-08-08T06:34:05;16.50;95.70
18454;DHT22;9356;52.202;20.950;2023-08-08T06:35:11;15.00;95.10
18454;DHT22;9356;52.202;20.950;2023-08-08T06:36:15;19.80;96.80
18454;DHT22;9356;52.202;20.950;2023-08-08T06:37:18;16.40;95.90
18454;DHT22;9356;52.202;20.950;2023-08-08T06:38:25;16.30;95.90
18454;DHT22;9356;52.202;20.950;2023-08-08T06:39:33;16.40;95.80
18454;DHT22;9356;52.202;20.950;2023-08-08T06:40:45;16.40;95.70
18454;DHT22;9356;52.202;20.950;2023-08-08T06:41:52;16.40;95.60
18454;DHT22;9356;52.202;20.950;2023-08-08T06:43:07;16.40;95.90
18454;DHT22;9356;52.202;20.950;2023-08-08T06:44:11;16.40;95.90
18454;DHT22;9356;52.202;20.950;2023-08-08T06:45:17;16.40;96.00
18454;DHT22;9356;52.202;20.950;2023-08-08T06:46:22;19.30;97.00
18454;DHT22;9356;52.202;20.950;2023-08-08T06:47:28;16.50;96.00
18454;DHT22;9356;52.202;20.950;2023-08-08T06:48:31;16.60;96.40
18454;DHT22;9356;52.202;20.950;2023-08-08T06:49:36;17.40;96.80
18454;DHT22;9356;52.202;20.950;2023-08-08T06:50:41;16.80;97.30
18454;DHT22;9356;52.202;20.950;2023-08-08T06:51:44;16.90;96.30
18454;DHT22;9356;52.202;20.950;2023-08-08T06:52:54;17.00;95.50
18454;DHT22;9356;52.202;20.950;2023-08-08T06:55:01;17.20;94.60
18454;DHT22;9356;52.202;20.950;2023-08-08T06:56:06;17.20;94.90
18454;DHT22;9356;52.202;20.950;2023-08-08T06:57:08;17.30;94.90
18454;DHT22;9356;52.202;20.950;2023-08-08T06:58:12;17.40;95.30
18454;DHT22;9356;52.202;20.950;2023-08-08T06:59:16;17.60;94.80
18454;DHT22;9356;52.202;20.950;2023-08-08T07:00:20;17.80;95.20
18454;DHT22;9356;52.202;20.950;2023-08-08T07:02:36;18.10;94.10
18454;DHT22;9356;52.202;20.950;2023-08-08T07:03:41;18.10;93.80
18454;DHT22;9356;52.202;20.950;2023-08-08T07:04:49;18.20;93.20
18454;DHT22;9356;52.202;20.950;2023-08-08T07:05:57;18.30;94.20
18454;DHT22;9356;52.202;20.950;2023-08-08T07:07:03;18.20;94.40
18454;DHT22;9356;52.202;20.950;2023-08-08T07:08:07;18.30;93.10
18454;DHT22;9356;52.202;20.950;2023-08-08T07:09:12;18.50;92.90
18454;DHT22;9356;52.202;20.950;2023-08-08T07:10:17;18.50;92.90
18454;DHT22;9356;52.202;20.950;2023-08-08T07:11:25;18.80;92.90
18454;DHT22;9356;52.202;20.950;2023-08-08T07:12:28;18.90;92.80
18454;DHT22;9356;52.202;20.950;2023-08-08T07:13:33;19.00;92.40
18454;DHT22;9356;52.202;20.950;2023-08-08T07:14:36;18.90;92.20
18454;DHT22;9356;52.202;20.950;2023-08-08T07:15:40;19.00;92.90
18454;DHT22;9356;52.202;20.950;2023-08-08T07:16:44;19.10;91.90
18454;DHT22;9356;52.202;20.950;2023-08-08T07:17:48;19.10;91.00
18454;DHT22;9356;52.202;20.950;2023-08-08T07:18:52;19.00;91.60
18454;DHT22;9356;52.202;20.950;2023-08-08T07:19:57;19.10;91.10
18454;DHT22;9356;52.202;20.950;2023-08-08T07:21:02;19.00;91.50
18454;DHT22;9356;52.202;20.950;2023-08-08T07:22:08;18.90;91.40
18454;DHT22;9356;52.202;20.950;2023-08-08T07:23:11;19.00;90.90
18454;DHT22;9356;52.202;20.950;2023-08-08T07:24:16;19.50;90.50
18454;DHT22;9356;52.202;20.950;2023-08-08T07:25:21;17.20;89.30
18454;DHT22;9356;52.202;20.950;2023-08-08T07:26:25;18.90;90.50
18454;DHT22;9356;52.202;20.950;2023-08-08T07:27:31;19.00;90.50
18454;DHT22;9356;52.202;20.950;2023-08-08T07:29:38;19.10;90.20
18454;DHT22;9356;52.202;20.950;2023-08-08T07:30:46;19.20;91.20
18454;DHT22;9356;52.202;20.950;2023-08-08T07:31:51;19.40;90.50
18454;DHT22;9356;52.202;20.950;2023-08-08T07:32:56;19.40;91.20
18454;DHT22;9356;52.202;20.950;2023-08-08T07:33:59;19.30;90.20
18454;DHT22;9356;52.202;20.950;2023-08-08T07:35:05;19.50;90.40
18454;DHT22;9356;52.202;20.950;2023-08-08T07:36:10;19.50;90.30
18454;DHT22;9356;52.202;20.950;2023-08-08T07:37:19;19.60;89.50
18454;DHT22;9356;52.202;20.950;2023-08-08T07:38:21;19.60;89.20
18454;DHT22;9356;52.202;20.950;2023-08-08T07:40:29;19.30;88.60
18454;DHT22;9356;52.202;20.950;2023-08-08T07:41:36;19.40;88.00
18454;DHT22;9356;52.202;20.950;2023-08-08T07:42:39;19.30;87.00
18454;DHT22;9356;52.202;20.950;2023-08-08T07:43:43;19.30;87.00
18454;DHT22;9356;52.202;20.950;2023-08-08T07:44:50;19.20;89.10
18454;DHT22;9356;52.202;20.950;2023-08-08T07:45:54;19.20;88.20
18454;DHT22;9356;52.202;20.950;2023-08-08T07:46:58;19.20;88.10
18454;DHT22;9356;52.202;20.950;2023-08-08T07:49:08;21.90;88.90
18454;DHT22;9356;52.202;20.950;2023-08-08T07:51:18;19.30;87.00
18454;DHT22;9356;52.202;20.950;2023-08-08T07:52:24;19.20;87.00
18454;DHT22;9356;52.202;20.950;2023-08-08T07:53:28;19.30;88.70